sensor_id;sensor_type;location;lat;lon;timestamp;pressure;altitude;pressure_sealevel;temperature;humidity
26807;BME280;14380;49.910;6.792;2024-02-23T00:01:47;96529.03;;;6.34;100.00
26807;BME280;14380;49.910;6.792;2024-02-23T00:04:14;96528.97;;;6.22;100.00
26807;BME280;14380;49.910;6.792;2024-02-23T00:06:44;96540.41;;;6.21;100.00
26807;BME280;14380;49.910;6.792;2024-02-23T00:09:12;96547.16;;;6.48;100.00
26807;BME280;14380;49.910;6.792;2024-02-23T00:11:39;96548.66;;;6.04;100.00
26807;BME280;14380;49.910;6.792;2024-02-23T00:14:09;96547.38;;;6.34;100.00
26807;BME280;14380;49.910;6.792;2024-02-23T00:16:38;96558.47;;;6.13;100.00
26807;BME280;14380;49.910;6.792;2024-02-23T00:19:05;96552.56;;;6.22;100.00
26807;BME280;14380;49.910;6.792;2024-02-23T00:21:31;96569.84;;;6.25;100.00
26807;BME280;14380;49.910;6.792;2024-02-23T00:23:58;96565.00;;;6.32;100.00
26807;BME280;14380;49.910;6.792;2024-02-23T00:26:26;96564.34;;;6.52;100.00
26807;BME280;14380;49.910;6.792;2024-02-23T00:28:53;96582.41;;;6.33;100.00
26807;BME280;14380;49.910;6.792;2024-02-23T00:31:19;96578.09;;;6.07;100.00
26807;BME280;14380;49.910;6.792;2024-02-23T00:33:46;96587.78;;;6.43;100.00
26807;BME280;14380;49.910;6.792;2024-02-23T00:36:13;96588.38;;;6.35;100.00
26807;BME280;14380;49.910;6.792;2024-02-23T00:38:39;96599.50;;;6.25;100.00
26807;BME280;14380;49.910;6.792;2024-02-23T00:41:06;96603.00;;;6.13;100.00
26807;BME280;14380;49.910;6.792;2024-02-23T00:43:38;96599.44;;;6.14;100.00
26807;BME280;14380;49.910;6.792;2024-02-23T00:46:05;96596.66;;;6.04;100.00
26807;BME280;14380;49.910;6.792;2024-02-23T00:48:32;96599.66;;;6.35;100.00
26807;BME280;14380;49.910;6.792;2024-02-23T00:50:58;96604.63;;;6.03;100.00
26807;BME280;14380;49.910;6.792;2024-02-23T00:53:25;96611.38;;;6.43;100.00
26807;BME280;14380;49.910;6.792;2024-02-23T00:55:51;96626.09;;;6.08;100.00
26807;BME280;14380;49.910;6.792;2024-02-23T00:58:18;96617.56;;;6.42;100.00
26807;BME280;14380;49.910;6.792;2024-02-23T01:00:46;96622.84;;;6.04;100.00
26807;BME280;14380;49.910;6.792;2024-02-23T01:03:13;96628.84;;;6.31;100.00
26807;BME280;14380;49.910;6.792;2024-02-23T01:05:39;96618.75;;;6.37;100.00
26807;BME280;14380;49.910;6.792;2024-02-23T01:08:07;96635.31;;;6.38;99.50
26807;BME280;14380;49.910;6.792;2024-02-23T01:10:34;96633.53;;;6.38;98.97
26807;BME280;14380;49.910;6.792;2024-02-23T01:13:00;96632.69;;;6.38;99.71
26807;BME280;14380;49.910;6.792;2024-02-23T01:15:27;96629.38;;;6.47;98.55
26807;BME280;14380;49.910;6.792;2024-02-23T01:17:55;96632.00;;;6.23;97.49
26807;BME280;14380;49.910;6.792;2024-02-23T01:20:22;96628.63;;;6.69;96.18
26807;BME280;14380;49.910;6.792;2024-02-23T01:22:49;96640.06;;;6.57;96.78
26807;BME280;14380;49.910;6.792;2024-02-23T01:25:15;96633.72;;;6.60;97.43
26807;BME280;14380;49.910;6.792;2024-02-23T01:27:42;96645.22;;;6.46;96.77
26807;BME280;14380;49.910;6.792;2024-02-23T01:30:10;96651.28;;;6.22;98.40
26807;BME280;14380;49.910;6.792;2024-02-23T01:32:37;96647.22;;;6.66;99.60
26807;BME280;14380;49.910;6.792;2024-02-23T01:35:07;96656.72;;;6.32;98.21
26807;BME280;14380;49.910;6.792;2024-02-23T01:37:34;96652.81;;;6.37;97.24
26807;BME280;14380;49.910;6.792;2024-02-23T01:40:00;96641.72;;;6.58;94.94
26807;BME280;14380;49.910;6.792;2024-02-23T01:42:27;96648.78;;;6.69;94.23
26807;BME280;14380;49.910;6.792;2024-02-23T01:44:54;96666.94;;;6.48;94.91
26807;BME280;14380;49.910;6.792;2024-02-23T01:47:22;96668.47;;;6.75;92.63
26807;BME280;14380;49.910;6.792;2024-02-23T01:49:49;96667.75;;;6.48;94.26
26807;BME280;14380;49.910;6.792;2024-02-23T01:52:17;96668.03;;;6.81;91.46
26807;BME280;14380;49.910;6.792;2024-02-23T01:54:44;96671.94;;;6.75;93.58
26807;BME280;14380;49.910;6.792;2024-02-23T01:57:11;96674.13;;;6.20;94.04
26807;BME280;14380;49.910;6.792;2024-02-23T01:59:38;96686.91;;;6.62;95.45
26807;BME280;14380;49.910;6.792;2024-02-23T02:02:05;96684.34;;;6.73;92.14
26807;BME280;14380;49.910;6.792;2024-02-23T02:04:31;96690.22;;;6.88;91.58
26807;BME280;14380;49.910;6.792;2024-02-23T02:06:59;96681.88;;;6.83;91.51
26807;BME280;14380;49.910;6.792;2024-02-23T02:09:27;96695.84;;;6.59;92.07
26807;BME280;14380;49.910;6.792;2024-02-23T02:11:54;96700.81;;;6.87;92.12
26807;BME280;14380;49.910;6.792;2024-02-23T02:14:20;96690.81;;;6.92;92.30
26807;BME280;14380;49.910;6.792;2024-02-23T02:16:47;96700.06;;;7.56;90.28
26807;BME280;14380;49.910;6.792;2024-02-23T02:19:14;96706.47;;;6.93;94.15
26807;BME280;14380;49.910;6.792;2024-02-23T02:21:41;96696.81;;;7.52;91.83
26807;BME280;14380;49.910;6.792;2024-02-23T02:24:08;96701.63;;;7.47;91.60
26807;BME280;14380;49.910;6.792;2024-02-23T02:26:37;96710.53;;;6.97;94.01
26807;BME280;14380;49.910;6.792;2024-02-23T02:29:03;96708.66;;;6.99;96.75
26807;BME280;14380;49.910;6.792;2024-02-23T02:31:30;96713.00;;;6.88;97.46
26807;BME280;14380;49.910;6.792;2024-02-23T02:34:02;96709.50;;;7.11;99.54
26807;BME280;14380;49.910;6.792;2024-02-23T02:36:29;96711.56;;;7.19;98.93
26807;BME280;14380;49.910;6.792;2024-02-23T02:38:55;96713.78;;;6.77;100.00
26807;BME280;14380;49.910;6.792;2024-02-23T02:41:23;96714.03;;;6.36;100.00
26807;BME280;14380;49.910;6.792;2024-02-23T02:43:55;96711.59;;;6.46;100.00
26807;BME280;14380;49.910;6.792;2024-02-23T02:46:22;96707.72;;;6.52;100.00
26807;BME280;14380;49.910;6.792;2024-02-23T02:48:48;96710.78;;;6.46;100.00
26807;BME280;14380;49.910;6.792;2024-02-23T02:51:15;96704.34;;;6.25;100.00
26807;BME280;14380;49.910;6.792;2024-02-23T02:53:41;96716.00;;;6.46;100.00
26807;BME280;14380;49.910;6.792;2024-02-23T02:56:08;96715.00;;;6.60;99.39
26807;BME280;14380;49.910;6.792;2024-02-23T02:58:34;96709.94;;;6.69;100.00
26807;BME280;14380;49.910;6.792;2024-02-23T03:01:03;96722.75;;;6.37;100.00
26807;BME280;14380;49.910;6.792;2024-02-23T03:03:29;96721.03;;;6.12;100.00
26807;BME280;14380;49.910;6.792;2024-02-23T03:05:56;96724.78;;;6.20;100.00
26807;BME280;14380;49.910;6.792;2024-02-23T03:08:22;96735.47;;;6.17;100.00
26807;BME280;14380;49.910;6.792;2024-02-23T03:10:49;96735.91;;;6.48;100.00
26807;BME280;14380;49.910;6.792;2024-02-23T03:13:15;96737.16;;;6.80;100.00
26807;BME280;14380;49.910;6.792;2024-02-23T03:15:42;96735.63;;;6.77;100.00
26807;BME280;14380;49.910;6.792;2024-02-23T03:18:10;96733.88;;;6.65;100.00
26807;BME280;14380;49.910;6.792;2024-02-23T03:20:38;96730.88;;;6.82;100.00
26807;BME280;14380;49.910;6.792;2024-02-23T03:23:04;96740.91;;;6.27;100.00
26807;BME280;14380;49.910;6.792;2024-02-23T03:25:31;96735.13;;;6.35;100.00
26807;BME280;14380;49.910;6.792;2024-02-23T03:27:57;96734.31;;;6.59;100.00
26807;BME280;14380;49.910;6.792;2024-02-23T03:30:24;96735.03;;;6.61;100.00
26807;BME280;14380;49.910;6.792;2024-02-23T03:32:50;96737.59;;;6.74;100.00
26807;BME280;14380;49.910;6.792;2024-02-23T03:35:18;96737.69;;;6.10;100.00
26807;BME280;14380;49.910;6.792;2024-02-23T03:37:44;96733.59;;;6.57;100.00
26807;BME280;14380;49.910;6.792;2024-02-23T03:40:12;96736.84;;;6.47;100.00
26807;BME280;14380;49.910;6.792;2024-02-23T03:42:39;96736.28;;;6.31;100.00
26807;BME280;14380;49.910;6.792;2024-02-23T03:45:05;96737.88;;;6.20;100.00
26807;BME280;14380;49.910;6.792;2024-02-23T03:47:32;96729.84;;;6.10;100.00
26807;BME280;14380;49.910;6.792;2024-02-23T03:49:58;96723.75;;;5.97;100.00
26807;BME280;14380;49.910;6.792;2024-02-23T03:52:26;96717.50;;;6.37;100.00
26807;BME280;14380;49.910;6.792;2024-02-23T03:54:53;96722.91;;;6.09;100.00
26807;BME280;14380;49.910;6.792;2024-02-23T03:57:20;96710.25;;;5.90;100.00
26807;BME280;14380;49.910;6.792;2024-02-23T03:59:51;96705.28;;;5.99;100.00
26807;BME280;14380;49.910;6.792;2024-02-23T04:02:18;96713.69;;;6.17;100.00
26807;BME280;14380;49.910;6.792;2024-02-23T04:04:45;96708.16;;;5.95;100.00
26807;BME280;14380;49.910;6.792;2024-02-23T04:07:12;96704.34;;;6.00;100.00
26807;BME280;14380;49.910;6.792;2024-02-23T04:09:40;96694.06;;;5.96;100.00
26807;BME280;14380;49.910;6.792;2024-02-23T04:12:06;96702.00;;;6.21;100.00
26807;BME280;14380;49.910;6.792;2024-02-23T04:14:33;96707.09;;;5.85;100.00
26807;BME280;14380;49.910;6.792;2024-02-23T04:17:01;96700.81;;;6.14;100.00
26807;BME280;14380;49.910;6.792;2024-02-23T04:19:28;96699.56;;;5.68;100.00
26807;BME280;14380;49.910;6.792;2024-02-23T04:21:54;96713.50;;;5.68;100.00
26807;BME280;14380;49.910;6.792;2024-02-23T04:24:21;96714.84;;;5.87;100.00
26807;BME280;14380;49.910;6.792;2024-02-23T04:26:49;96712.75;;;5.79;100.00
26807;BME280;14380;49.910;6.792;2024-02-23T04:29:16;96706.78;;;5.77;100.00
26807;BME280;14380;49.910;6.792;2024-02-23T04:31:42;96711.91;;;5.65;100.00
26807;BME280;14380;49.910;6.792;2024-02-23T04:34:09;96707.84;;;5.61;100.00
26807;BME280;14380;49.910;6.792;2024-02-23T04:36:35;96706.03;;;5.88;100.00
26807;BME280;14380;49.910;6.792;2024-02-23T04:39:02;96709.00;;;5.83;100.00
26807;BME280;14380;49.910;6.792;2024-02-23T04:41:29;96717.47;;;5.87;100.00
26807;BME280;14380;49.910;6.792;2024-02-23T04:43:57;96721.03;;;5.73;100.00
26807;BME280;14380;49.910;6.792;2024-02-23T04:46:25;96714.00;;;6.12;100.00
26807;BME280;14380;49.910;6.792;2024-02-23T04:48:51;96712.44;;;6.09;100.00
26807;BME280;14380;49.910;6.792;2024-02-23T04:51:18;96724.47;;;5.60;100.00
26807;BME280;14380;49.910;6.792;2024-02-23T04:53:45;96722.28;;;5.93;100.00
26807;BME280;14380;49.910;6.792;2024-02-23T04:56:12;96723.75;;;5.84;100.00
26807;BME280;14380;49.910;6.792;2024-02-23T04:58:38;96732.66;;;5.81;100.00
26807;BME280;14380;49.910;6.792;2024-02-23T05:01:08;96723.63;;;5.86;100.00
26807;BME280;14380;49.910;6.792;2024-02-23T05:03:34;96725.97;;;5.90;100.00
26807;BME280;14380;49.910;6.792;2024-02-23T05:06:02;96721.00;;;6.24;100.00
26807;BME280;14380;49.910;6.792;2024-02-23T05:08:30;96724.56;;;6.23;100.00
26807;BME280;14380;49.910;6.792;2024-02-23T05:10:57;96717.00;;;6.32;100.00
26807;BME280;14380;49.910;6.792;2024-02-23T05:13:24;96714.84;;;6.13;100.00
26807;BME280;14380;49.910;6.792;2024-02-23T05:15:51;96719.66;;;6.43;100.00
26807;BME280;14380;49.910;6.792;2024-02-23T05:18:19;96717.38;;;6.38;100.00
26807;BME280;14380;49.910;6.792;2024-02-23T05:20:45;96724.16;;;6.54;99.94
26807;BME280;14380;49.910;6.792;2024-02-23T05:23:12;96723.31;;;6.53;100.00
26807;BME280;14380;49.910;6.792;2024-02-23T05:25:40;96720.66;;;6.29;100.00
26807;BME280;14380;49.910;6.792;2024-02-23T05:28:07;96716.38;;;6.28;100.00
26807;BME280;14380;49.910;6.792;2024-02-23T05:30:34;96712.28;;;6.37;100.00
26807;BME280;14380;49.910;6.792;2024-02-23T05:33:00;96710.69;;;6.34;99.69
26807;BME280;14380;49.910;6.792;2024-02-23T05:35:30;96711.66;;;6.58;100.00
26807;BME280;14380;49.910;6.792;2024-02-23T05:37:56;96710.72;;;6.59;99.43
26807;BME280;14380;49.910;6.792;2024-02-23T05:40:24;96710.22;;;6.16;100.00
26807;BME280;14380;49.910;6.792;2024-02-23T05:42:50;96704.34;;;6.00;100.00
26807;BME280;14380;49.910;6.792;2024-02-23T05:45:17;96704.13;;;6.29;100.00
26807;BME280;14380;49.910;6.792;2024-02-23T05:47:43;96696.13;;;6.30;100.00
26807;BME280;14380;49.910;6.792;2024-02-23T05:50:10;96702.88;;;6.21;100.00
26807;BME280;14380;49.910;6.792;2024-02-23T05:52:37;96693.97;;;6.48;100.00
26807;BME280;14380;49.910;6.792;2024-02-23T05:55:05;96690.28;;;6.27;98.55
26807;BME280;14380;49.910;6.792;2024-02-23T05:57:31;96699.22;;;5.98;100.00
26807;BME280;14380;49.910;6.792;2024-02-23T05:59:58;96690.44;;;6.36;100.00
26807;BME280;14380;49.910;6.792;2024-02-23T06:02:25;96695.81;;;6.35;100.00
26807;BME280;14380;49.910;6.792;2024-02-23T06:04:51;96680.25;;;6.45;99.72
26807;BME280;14380;49.910;6.792;2024-02-23T06:07:18;96683.38;;;6.50;99.51
26807;BME280;14380;49.910;6.792;2024-02-23T06:09:48;96681.25;;;6.31;100.00
26807;BME280;14380;49.910;6.792;2024-02-23T06:12:14;96689.16;;;6.42;100.00
26807;BME280;14380;49.910;6.792;2024-02-23T06:14:41;96676.28;;;6.63;98.50
26807;BME280;14380;49.910;6.792;2024-02-23T06:17:08;96677.00;;;6.65;98.79
26807;BME280;14380;49.910;6.792;2024-02-23T06:19:34;96668.81;;;6.21;100.00
26807;BME280;14380;49.910;6.792;2024-02-23T06:22:01;96672.25;;;6.59;99.09
26807;BME280;14380;49.910;6.792;2024-02-23T06:24:28;96678.81;;;6.40;99.72
26807;BME280;14380;49.910;6.792;2024-02-23T06:26:57;96675.81;;;6.58;99.04
26807;BME280;14380;49.910;6.792;2024-02-23T06:29:24;96678.81;;;6.40;100.00
26807;BME280;14380;49.910;6.792;2024-02-23T06:31:51;96670.72;;;6.68;98.84
26807;BME280;14380;49.910;6.792;2024-02-23T06:34:18;96669.13;;;6.65;99.85
26807;BME280;14380;49.910;6.792;2024-02-23T06:36:44;96661.81;;;6.82;97.96
26807;BME280;14380;49.910;6.792;2024-02-23T06:39:10;96667.44;;;6.29;100.00
26807;BME280;14380;49.910;6.792;2024-02-23T06:41:37;96664.69;;;6.54;100.00
26807;BME280;14380;49.910;6.792;2024-02-23T06:44:06;96666.94;;;6.48;100.00
26807;BME280;14380;49.910;6.792;2024-02-23T06:46:32;96666.44;;;6.43;99.99
26807;BME280;14380;49.910;6.792;2024-02-23T06:48:59;96662.56;;;6.35;100.00
26807;BME280;14380;49.910;6.792;2024-02-23T06:51:26;96660.09;;;6.21;100.00
26807;BME280;14380;49.910;6.792;2024-02-23T06:53:52;96665.63;;;6.29;100.00
26807;BME280;14380;49.910;6.792;2024-02-23T06:56:19;96662.41;;;6.74;99.64
26807;BME280;14380;49.910;6.792;2024-02-23T06:58:45;96657.97;;;6.39;99.63
26807;BME280;14380;49.910;6.792;2024-02-23T07:01:14;96664.63;;;6.43;99.31
26807;BME280;14380;49.910;6.792;2024-02-23T07:03:41;96660.44;;;6.65;99.42
26807;BME280;14380;49.910;6.792;2024-02-23T07:06:09;96660.16;;;6.57;98.68
26807;BME280;14380;49.910;6.792;2024-02-23T07:08:36;96670.00;;;7.02;98.42
26807;BME280;14380;49.910;6.792;2024-02-23T07:11:03;96672.25;;;6.59;98.71
26807;BME280;14380;49.910;6.792;2024-02-23T07:13:29;96672.97;;;6.61;99.70
26807;BME280;14380;49.910;6.792;2024-02-23T07:15:56;96669.03;;;6.67;99.33
26807;BME280;14380;49.910;6.792;2024-02-23T07:18:24;96672.44;;;6.80;99.18
26807;BME280;14380;49.910;6.792;2024-02-23T07:20:51;96668.38;;;6.52;100.00
26807;BME280;14380;49.910;6.792;2024-02-23T07:23:18;96671.63;;;6.91;99.03
26807;BME280;14380;49.910;6.792;2024-02-23T07:25:44;96670.44;;;6.60;99.97
26807;BME280;14380;49.910;6.792;2024-02-23T07:28:11;96673.94;;;6.72;100.00
26807;BME280;14380;49.910;6.792;2024-02-23T07:30:39;96670.41;;;6.84;99.38
26807;BME280;14380;49.910;6.792;2024-02-23T07:33:06;96673.59;;;7.01;99.91
26807;BME280;14380;49.910;6.792;2024-02-23T07:35:34;96677.28;;;6.49;100.00
26807;BME280;14380;49.910;6.792;2024-02-23T07:38:00;96679.53;;;6.43;100.00
26807;BME280;14380;49.910;6.792;2024-02-23T07:40:27;96680.91;;;6.35;100.00
26807;BME280;14380;49.910;6.792;2024-02-23T07:42:54;96680.13;;;6.46;100.00
26807;BME280;14380;49.910;6.792;2024-02-23T07:45:20;96684.88;;;6.65;100.00
26807;BME280;14380;49.910;6.792;2024-02-23T07:47:47;96679.41;;;6.44;99.83
26807;BME280;14380;49.910;6.792;2024-02-23T07:50:13;96692.59;;;6.55;100.00
26807;BME280;14380;49.910;6.792;2024-02-23T07:52:42;96690.41;;;6.49;100.00
26807;BME280;14380;49.910;6.792;2024-02-23T07:55:09;96692.56;;;6.80;100.00
26807;BME280;14380;49.910;6.792;2024-02-23T07:57:36;96690.63;;;6.70;98.92
26807;BME280;14380;49.910;6.792;2024-02-23T08:00:05;96685.28;;;7.08;99.05
26807;BME280;14380;49.910;6.792;2024-02-23T08:02:34;96692.94;;;6.51;99.88
26807;BME280;14380;49.910;6.792;2024-02-23T08:05:01;96680.50;;;7.02;99.99
26807;BME280;14380;49.910;6.792;2024-02-23T08:07:29;96699.19;;;6.61;99.08
26807;BME280;14380;49.910;6.792;2024-02-23T08:09:57;96698.56;;;7.18;99.67
26807;BME280;14380;49.910;6.792;2024-02-23T08:12:23;96696.13;;;7.03;100.00
26807;BME280;14380;49.910;6.792;2024-02-23T08:14:50;96703.22;;;6.65;98.74
26807;BME280;14380;49.910;6.792;2024-02-23T08:17:18;96696.53;;;7.21;96.20
26807;BME280;14380;49.910;6.792;2024-02-23T08:19:45;96686.28;;;6.82;99.25
26807;BME280;14380;49.910;6.792;2024-02-23T08:22:11;96702.22;;;7.04;98.30
26807;BME280;14380;49.910;6.792;2024-02-23T08:24:38;96691.16;;;7.11;96.48
26807;BME280;14380;49.910;6.792;2024-02-23T08:27:06;96702.81;;;7.43;95.99
26807;BME280;14380;49.910;6.792;2024-02-23T08:29:33;96703.94;;;7.27;96.37
26807;BME280;14380;49.910;6.792;2024-02-23T08:31:59;96701.22;;;6.93;98.32
26807;BME280;14380;49.910;6.792;2024-02-23T08:34:26;96707.16;;;7.31;97.54
26807;BME280;14380;49.910;6.792;2024-02-23T08:36:53;96706.53;;;7.16;96.56
26807;BME280;14380;49.910;6.792;2024-02-23T08:39:20;96708.72;;;7.22;98.35
26807;BME280;14380;49.910;6.792;2024-02-23T08:41:47;96716.13;;;7.28;97.56
26807;BME280;14380;49.910;6.792;2024-02-23T08:44:15;96726.53;;;7.41;96.30
26807;BME280;14380;49.910;6.792;2024-02-23T08:46:42;96714.41;;;7.63;96.15
26807;BME280;14380;49.910;6.792;2024-02-23T08:49:08;96722.75;;;7.57;96.70
26807;BME280;14380;49.910;6.792;2024-02-23T08:51:35;96731.06;;;7.39;95.29
26807;BME280;14380;49.910;6.792;2024-02-23T08:54:02;96733.50;;;7.18;98.33
26807;BME280;14380;49.910;6.792;2024-02-23T08:56:30;96731.28;;;7.25;97.39
26807;BME280;14380;49.910;6.792;2024-02-23T08:58:58;96733.25;;;7.57;95.34
26807;BME280;14380;49.910;6.792;2024-02-23T09:01:26;96733.13;;;7.47;94.87
26807;BME280;14380;49.910;6.792;2024-02-23T09:03:52;96733.59;;;7.52;94.23
26807;BME280;14380;49.910;6.792;2024-02-23T09:06:19;96735.97;;;7.55;94.82
26807;BME280;14380;49.910;6.792;2024-02-23T09:08:45;96737.25;;;7.38;95.24
26807;BME280;14380;49.910;6.792;2024-02-23T09:11:12;96738.66;;;7.20;95.28
26807;BME280;14380;49.910;6.792;2024-02-23T09:13:40;96732.63;;;7.42;96.10
26807;BME280;14380;49.910;6.792;2024-02-23T09:16:08;96738.38;;;7.47;94.13
26807;BME280;14380;49.910;6.792;2024-02-23T09:18:36;96735.06;;;7.68;94.42
26807;BME280;14380;49.910;6.792;2024-02-23T09:21:03;96733.16;;;7.81;94.87
26807;BME280;14380;49.910;6.792;2024-02-23T09:23:30;96736.28;;;8.09;94.93
26807;BME280;14380;49.910;6.792;2024-02-23T09:25:57;96723.72;;;7.79;94.27
26807;BME280;14380;49.910;6.792;2024-02-23T09:28:24;96734.28;;;7.32;96.08
26807;BME280;14380;49.910;6.792;2024-02-23T09:30:50;96726.59;;;7.76;94.53
26807;BME280;14380;49.910;6.792;2024-02-23T09:33:18;96730.50;;;7.47;94.90
26807;BME280;14380;49.910;6.792;2024-02-23T09:35:46;96730.66;;;7.80;95.32
26807;BME280;14380;49.910;6.792;2024-02-23T09:38:13;96732.84;;;8.09;93.73
26807;BME280;14380;49.910;6.792;2024-02-23T09:40:40;96732.09;;;8.29;92.49
26807;BME280;14380;49.910;6.792;2024-02-23T09:43:07;96735.44;;;7.97;94.47
26807;BME280;14380;49.910;6.792;2024-02-23T09:45:37;96731.63;;;8.01;93.71
26807;BME280;14380;49.910;6.792;2024-02-23T09:48:04;96733.44;;;7.89;93.21
26807;BME280;14380;49.910;6.792;2024-02-23T09:50:33;96733.16;;;7.70;92.70
26807;BME280;14380;49.910;6.792;2024-02-23T09:53:03;96732.13;;;8.07;92.62
26807;BME280;14380;49.910;6.792;2024-02-23T09:55:31;96728.16;;;7.78;93.03
26807;BME280;14380;49.910;6.792;2024-02-23T09:57:58;96727.81;;;8.06;94.45
26807;BME280;14380;49.910;6.792;2024-02-23T10:00:25;96719.66;;;7.86;92.99
26807;BME280;14380;49.910;6.792;2024-02-23T10:02:54;96715.72;;;8.03;93.00
26807;BME280;14380;49.910;6.792;2024-02-23T10:05:23;96719.03;;;8.39;94.13
26807;BME280;14380;49.910;6.792;2024-02-23T10:07:55;96713.44;;;8.21;90.80
26807;BME280;14380;49.910;6.792;2024-02-23T10:10:29;96713.47;;;8.10;91.67
26807;BME280;14380;49.910;6.792;2024-02-23T10:12:57;96716.16;;;8.42;91.00
26807;BME280;14380;49.910;6.792;2024-02-23T10:15:24;96723.56;;;8.71;89.68
26807;BME280;14380;49.910;6.792;2024-02-23T10:17:52;96711.28;;;8.60;88.87
26807;BME280;14380;49.910;6.792;2024-02-23T10:20:20;96717.50;;;8.48;91.02
26807;BME280;14380;49.910;6.792;2024-02-23T10:22:47;96709.78;;;7.89;91.80
26807;BME280;14380;49.910;6.792;2024-02-23T10:25:13;96713.72;;;7.95;91.94
26807;BME280;14380;49.910;6.792;2024-02-23T10:27:41;96714.53;;;8.30;91.34
26807;BME280;14380;49.910;6.792;2024-02-23T10:30:09;96725.28;;;8.04;90.45
26807;BME280;14380;49.910;6.792;2024-02-23T10:32:38;96724.56;;;8.25;90.02
26807;BME280;14380;49.910;6.792;2024-02-23T10:35:10;96731.06;;;8.76;88.49
26807;BME280;14380;49.910;6.792;2024-02-23T10:37:36;96735.28;;;8.78;89.19
26807;BME280;14380;49.910;6.792;2024-02-23T10:40:06;96747.75;;;8.31;89.85
26807;BME280;14380;49.910;6.792;2024-02-23T10:42:36;96735.19;;;8.57;89.38
26807;BME280;14380;49.910;6.792;2024-02-23T10:45:08;96745.69;;;8.69;90.50
26807;BME280;14380;49.910;6.792;2024-02-23T10:47:36;96754.25;;;8.82;89.23
26807;BME280;14380;49.910;6.792;2024-02-23T10:50:03;96749.66;;;8.52;91.44
26807;BME280;14380;49.910;6.792;2024-02-23T10:52:30;96763.03;;;8.14;94.12
26807;BME280;14380;49.910;6.792;2024-02-23T10:55:00;96753.59;;;8.34;94.76
26807;BME280;14380;49.910;6.792;2024-02-23T10:57:30;96742.50;;;8.08;93.09
26807;BME280;14380;49.910;6.792;2024-02-23T10:59:57;96749.63;;;8.74;93.15
26807;BME280;14380;49.910;6.792;2024-02-23T11:02:27;96746.66;;;9.00;92.04
26807;BME280;14380;49.910;6.792;2024-02-23T11:04:56;96741.38;;;9.12;90.91
26807;BME280;14380;49.910;6.792;2024-02-23T11:07:24;96733.50;;;9.00;91.57
26807;BME280;14380;49.910;6.792;2024-02-23T11:09:53;96736.44;;;9.61;88.57
26807;BME280;14380;49.910;6.792;2024-02-23T11:12:23;96739.56;;;8.80;90.04
26807;BME280;14380;49.910;6.792;2024-02-23T11:14:51;96726.09;;;9.48;88.15
26807;BME280;14380;49.910;6.792;2024-02-23T11:17:18;96727.53;;;8.98;94.93
26807;BME280;14380;49.910;6.792;2024-02-23T11:19:49;96720.00;;;9.26;89.20
26807;BME280;14380;49.910;6.792;2024-02-23T11:22:24;96728.00;;;8.48;89.81
26807;BME280;14380;49.910;6.792;2024-02-23T11:24:51;96726.31;;;9.02;89.06
26807;BME280;14380;49.910;6.792;2024-02-23T11:27:18;96719.38;;;9.34;85.46
26807;BME280;14380;49.910;6.792;2024-02-23T11:29:46;96707.53;;;9.49;87.79
26807;BME280;14380;49.910;6.792;2024-02-23T11:32:14;96710.25;;;9.38;87.90
26807;BME280;14380;49.910;6.792;2024-02-23T11:34:41;96708.34;;;9.07;85.22
26807;BME280;14380;49.910;6.792;2024-02-23T11:37:11;96711.97;;;9.49;84.17
26807;BME280;14380;49.910;6.792;2024-02-23T11:39:38;96711.19;;;9.16;85.61
26807;BME280;14380;49.910;6.792;2024-02-23T11:42:06;96722.50;;;9.28;83.60
26807;BME280;14380;49.910;6.792;2024-02-23T11:44:32;96720.25;;;9.02;85.28
26807;BME280;14380;49.910;6.792;2024-02-23T11:46:59;96717.28;;;8.84;85.70
26807;BME280;14380;49.910;6.792;2024-02-23T11:49:27;96724.63;;;8.69;88.16
26807;BME280;14380;49.910;6.792;2024-02-23T11:51:54;96724.06;;;8.65;92.83
26807;BME280;14380;49.910;6.792;2024-02-23T11:54:22;96754.44;;;8.58;98.05
26807;BME280;14380;49.910;6.792;2024-02-23T11:56:49;96745.25;;;7.95;100.00
26807;BME280;14380;49.910;6.792;2024-02-23T11:59:18;96722.66;;;8.15;100.00
26807;BME280;14380;49.910;6.792;2024-02-23T12:01:45;96737.25;;;8.31;100.00
26807;BME280;14380;49.910;6.792;2024-02-23T12:04:12;96736.88;;;8.01;100.00
26807;BME280;14380;49.910;6.792;2024-02-23T12:06:39;96739.03;;;7.96;100.00
26807;BME280;14380;49.910;6.792;2024-02-23T12:09:06;96733.66;;;7.86;100.00
26807;BME280;14380;49.910;6.792;2024-02-23T12:11:35;96737.47;;;8.05;100.00
26807;BME280;14380;49.910;6.792;2024-02-23T12:14:02;96734.59;;;8.08;100.00
26807;BME280;14380;49.910;6.792;2024-02-23T12:16:33;96738.69;;;7.89;100.00
26807;BME280;14380;49.910;6.792;2024-02-23T12:19:01;96740.56;;;7.76;100.00
26807;BME280;14380;49.910;6.792;2024-02-23T12:21:27;96761.38;;;7.43;100.00
26807;BME280;14380;49.910;6.792;2024-02-23T12:23:54;96729.09;;;7.77;100.00
26807;BME280;14380;49.910;6.792;2024-02-23T12:26:21;96716.31;;;8.18;100.00
26807;BME280;14380;49.910;6.792;2024-02-23T12:28:49;96716.41;;;8.39;100.00
26807;BME280;14380;49.910;6.792;2024-02-23T12:31:16;96717.59;;;9.02;100.00
26807;BME280;14380;49.910;6.792;2024-02-23T12:33:50;96713.38;;;9.32;100.00
26807;BME280;14380;49.910;6.792;2024-02-23T12:36:16;96712.66;;;9.08;100.00
26807;BME280;14380;49.910;6.792;2024-02-23T12:38:43;96706.19;;;9.34;99.51
26807;BME280;14380;49.910;6.792;2024-02-23T12:41:10;96707.88;;;9.87;97.67
26807;BME280;14380;49.910;6.792;2024-02-23T12:43:37;96704.06;;;9.70;96.97
26807;BME280;14380;49.910;6.792;2024-02-23T12:46:05;96702.59;;;9.87;100.00
26807;BME280;14380;49.910;6.792;2024-02-23T12:48:33;96703.59;;;9.96;96.62
26807;BME280;14380;49.910;6.792;2024-02-23T12:51:00;96710.91;;;9.82;99.31
26807;BME280;14380;49.910;6.792;2024-02-23T12:53:31;96704.91;;;10.02;96.85
26807;BME280;14380;49.910;6.792;2024-02-23T12:55:59;96719.06;;;9.27;97.05
26807;BME280;14380;49.910;6.792;2024-02-23T12:58:26;96713.78;;;9.70;99.17
26807;BME280;14380;49.910;6.792;2024-02-23T13:00:52;96705.28;;;9.66;100.00
26807;BME280;14380;49.910;6.792;2024-02-23T13:03:20;96702.19;;;10.13;99.88
26807;BME280;14380;49.910;6.792;2024-02-23T13:05:47;96698.84;;;10.62;96.49